sensor_id;sensor_type;location;lat;lon;timestamp;pressure;altitude;pressure_sealevel;temperature;humidity
6942;BME280;3510;43.200;27.920;2023-03-16T00:01:57;100034.22;;;19.24;46.76
6942;BME280;3510;43.200;27.920;2023-03-16T00:04:24;100016.41;;;19.48;45.98
6942;BME280;3510;43.200;27.920;2023-03-16T00:06:51;99999.22;;;19.20;46.59
6942;BME280;3510;43.200;27.920;2023-03-16T00:09:18;100015.94;;;18.90;47.14
6942;BME280;3510;43.200;27.920;2023-03-16T00:11:45;100030.47;;;19.37;46.45
6942;BME280;3510;43.200;27.920;2023-03-16T00:14:12;100033.22;;;18.97;47.11
6942;BME280;3510;43.200;27.920;2023-03-16T00:16:38;100035.06;;;19.23;46.73
6942;BME280;3510;43.200;27.920;2023-03-16T00:19:05;100035.13;;;19.49;46.69
6942;BME280;3510;43.200;27.920;2023-03-16T00:21:32;100030.81;;;19.70;45.92
6942;BME280;3510;43.200;27.920;2023-03-16T00:23:59;100026.91;;;19.33;46.51
6942;BME280;3510;43.200;27.920;2023-03-16T00:26:29;100030.97;;;19.75;45.93
6942;BME280;3510;43.200;27.920;2023-03-16T00:28:56;100030.13;;;19.76;45.68
6942;BME280;3510;43.200;27.920;2023-03-16T00:31:23;100035.44;;;19.80;45.56
6942;BME280;3510;43.200;27.920;2023-03-16T00:33:50;100033.75;;;20.06;44.97
6942;BME280;3510;43.200;27.920;2023-03-16T00:36:16;100041.38;;;19.33;46.81
6942;BME280;3510;43.200;27.920;2023-03-16T00:38:43;100023.47;;;19.55;45.99
6942;BME280;3510;43.200;27.920;2023-03-16T00:41:13;100037.75;;;19.28;46.86
6942;BME280;3510;43.200;27.920;2023-03-16T00:43:42;100036.25;;;19.57;46.06
6942;BME280;3510;43.200;27.920;2023-03-16T00:46:12;100034.19;;;19.69;45.47
6942;BME280;3510;43.200;27.920;2023-03-16T00:48:41;100026.53;;;19.23;46.47
6942;BME280;3510;43.200;27.920;2023-03-16T00:51:10;100034.72;;;19.85;45.54
6942;BME280;3510;43.200;27.920;2023-03-16T00:53:39;100025.38;;;19.85;44.96
6942;BME280;3510;43.200;27.920;2023-03-16T00:56:06;100032.84;;;19.32;46.30
6942;BME280;3510;43.200;27.920;2023-03-16T00:58:35;100026.56;;;19.71;45.47
6942;BME280;3510;43.200;27.920;2023-03-16T01:01:04;100024.63;;;19.64;45.34
6942;BME280;3510;43.200;27.920;2023-03-16T01:03:31;100037.34;;;20.13;44.47
6942;BME280;3510;43.200;27.920;2023-03-16T01:06:02;100035.69;;;19.88;45.05
6942;BME280;3510;43.200;27.920;2023-03-16T01:08:30;100032.00;;;19.57;45.91
6942;BME280;3510;43.200;27.920;2023-03-16T01:11:01;100029.03;;;19.93;45.04
6942;BME280;3510;43.200;27.920;2023-03-16T01:13:29;100035.69;;;20.14;44.23
6942;BME280;3510;43.200;27.920;2023-03-16T01:15:57;100046.19;;;19.97;44.60
6942;BME280;3510;43.200;27.920;2023-03-16T01:18:25;100040.97;;;20.20;44.39
6942;BME280;3510;43.200;27.920;2023-03-16T01:20:52;100044.03;;;20.10;44.35
6942;BME280;3510;43.200;27.920;2023-03-16T01:23:19;100021.31;;;19.66;44.89
6942;BME280;3510;43.200;27.920;2023-03-16T01:25:46;100039.84;;;19.86;44.91
6942;BME280;3510;43.200;27.920;2023-03-16T01:28:18;100037.19;;;19.83;44.96
6942;BME280;3510;43.200;27.920;2023-03-16T01:30:45;100041.66;;;19.89;44.73
6942;BME280;3510;43.200;27.920;2023-03-16T01:33:12;100046.34;;;19.30;45.83
6942;BME280;3510;43.200;27.920;2023-03-16T01:35:40;100055.41;;;18.35;48.23
6942;BME280;3510;43.200;27.920;2023-03-16T01:38:07;100053.19;;;18.22;48.48
6942;BME280;3510;43.200;27.920;2023-03-16T01:40:34;100054.66;;;17.96;49.13
6942;BME280;3510;43.200;27.920;2023-03-16T01:43:03;100052.69;;;17.71;49.72
6942;BME280;3510;43.200;27.920;2023-03-16T01:48:23;100067.59;;;17.81;49.56
6942;BME280;3510;43.200;27.920;2023-03-16T01:50:53;100067.50;;;17.99;49.42
6942;BME280;3510;43.200;27.920;2023-03-16T01:53:22;100070.31;;;18.26;48.59
6942;BME280;3510;43.200;27.920;2023-03-16T01:55:51;100073.97;;;17.53;50.17
6942;BME280;3510;43.200;27.920;2023-03-16T01:58:19;100060.53;;;17.95;49.25
6942;BME280;3510;43.200;27.920;2023-03-16T02:00:46;100069.97;;;17.58;50.12
6942;BME280;3510;43.200;27.920;2023-03-16T02:03:13;100075.44;;;17.67;50.12
6942;BME280;3510;43.200;27.920;2023-03-16T02:05:43;100080.69;;;17.51;50.10
6942;BME280;3510;43.200;27.920;2023-03-16T02:08:13;100076.59;;;17.74;49.56
6942;BME280;3510;43.200;27.920;2023-03-16T02:10:40;100081.06;;;17.60;49.25
6942;BME280;3510;43.200;27.920;2023-03-16T02:13:07;100078.59;;;17.80;48.92
6942;BME280;3510;43.200;27.920;2023-03-16T02:15:33;100083.00;;;17.84;49.12
6942;BME280;3510;43.200;27.920;2023-03-16T02:18:01;100080.19;;;17.21;49.76
6942;BME280;3510;43.200;27.920;2023-03-16T02:20:31;100078.19;;;17.53;49.15
6942;BME280;3510;43.200;27.920;2023-03-16T02:22:59;100081.34;;;17.47;49.38
6942;BME280;3510;43.200;27.920;2023-03-16T02:25:30;100082.41;;;17.72;48.86
6942;BME280;3510;43.200;27.920;2023-03-16T02:28:02;100079.50;;;17.06;50.17
6942;BME280;3510;43.200;27.920;2023-03-16T02:30:32;100084.47;;;17.41;49.72
6942;BME280;3510;43.200;27.920;2023-03-16T02:32:59;100089.84;;;17.48;49.71
6942;BME280;3510;43.200;27.920;2023-03-16T02:35:26;100095.47;;;17.40;49.94
6942;BME280;3510;43.200;27.920;2023-03-16T02:37:52;100093.94;;;17.63;49.67
6942;BME280;3510;43.200;27.920;2023-03-16T02:40:22;100099.94;;;18.24;48.77
6942;BME280;3510;43.200;27.920;2023-03-16T02:42:54;100098.28;;;18.66;47.15
6942;BME280;3510;43.200;27.920;2023-03-16T02:45:24;100090.38;;;18.60;47.03
6942;BME280;3510;43.200;27.920;2023-03-16T02:47:55;100093.41;;;18.71;46.95
6942;BME280;3510;43.200;27.920;2023-03-16T02:50:23;100086.97;;;18.59;47.06
6942;BME280;3510;43.200;27.920;2023-03-16T02:52:50;100097.81;;;18.75;46.95
6942;BME280;3510;43.200;27.920;2023-03-16T02:55:17;100111.22;;;18.92;46.16
6942;BME280;3510;43.200;27.920;2023-03-16T02:57:43;100105.34;;;18.94;45.92
6942;BME280;3510;43.200;27.920;2023-03-16T03:00:11;100106.19;;;18.93;46.40
6942;BME280;3510;43.200;27.920;2023-03-16T03:02:41;100091.81;;;18.95;46.09
6942;BME280;3510;43.200;27.920;2023-03-16T03:05:09;100104.22;;;19.08;45.82
6942;BME280;3510;43.200;27.920;2023-03-16T03:07:36;100094.66;;;19.03;45.87
6942;BME280;3510;43.200;27.920;2023-03-16T03:10:04;100100.56;;;19.47;44.90
6942;BME280;3510;43.200;27.920;2023-03-16T03:12:31;100068.97;;;18.98;45.23
6942;BME280;3510;43.200;27.920;2023-03-16T03:14:58;100127.81;;;19.03;45.87
6942;BME280;3510;43.200;27.920;2023-03-16T03:17:25;100123.16;;;19.60;44.95
6942;BME280;3510;43.200;27.920;2023-03-16T03:19:55;100124.75;;;19.34;45.24
6942;BME280;3510;43.200;27.920;2023-03-16T03:22:23;100122.75;;;18.82;46.21
6942;BME280;3510;43.200;27.920;2023-03-16T03:24:51;100123.00;;;19.33;45.32
6942;BME280;3510;43.200;27.920;2023-03-16T03:27:18;100120.91;;;19.00;45.93
6942;BME280;3510;43.200;27.920;2023-03-16T03:29:46;100122.66;;;18.59;46.79
6942;BME280;3510;43.200;27.920;2023-03-16T03:32:13;100132.72;;;18.98;46.18
6942;BME280;3510;43.200;27.920;2023-03-16T03:34:40;100127.41;;;19.37;44.96
6942;BME280;3510;43.200;27.920;2023-03-16T03:37:07;100133.13;;;18.86;46.24
6942;BME280;3510;43.200;27.920;2023-03-16T03:39:35;100130.81;;;18.93;46.23
6942;BME280;3510;43.200;27.920;2023-03-16T03:42:04;100145.41;;;18.97;46.07
6942;BME280;3510;43.200;27.920;2023-03-16T03:44:31;100083.34;;;18.74;45.67
6942;BME280;3510;43.200;27.920;2023-03-16T03:46:59;100155.53;;;19.16;45.56
6942;BME280;3510;43.200;27.920;2023-03-16T03:49:26;100134.53;;;18.80;46.31
6942;BME280;3510;43.200;27.920;2023-03-16T03:51:53;100140.50;;;19.01;46.04
6942;BME280;3510;43.200;27.920;2023-03-16T03:58:00;100166.66;;;18.55;47.15
6942;BME280;3510;43.200;27.920;2023-03-16T04:00:26;100168.50;;;18.38;47.56
6942;BME280;3510;43.200;27.920;2023-03-16T04:02:53;100150.28;;;17.53;49.30
6942;BME280;3510;43.200;27.920;2023-03-16T04:05:20;100137.47;;;17.70;48.77
6942;BME280;3510;43.200;27.920;2023-03-16T04:07:46;100166.03;;;18.01;48.54
6942;BME280;3510;43.200;27.920;2023-03-16T04:10:14;100173.44;;;17.58;49.82
6942;BME280;3510;43.200;27.920;2023-03-16T04:12:41;100187.34;;;17.29;50.45
6942;BME280;3510;43.200;27.920;2023-03-16T04:15:09;100179.91;;;17.51;50.36
6942;BME280;3510;43.200;27.920;2023-03-16T04:17:37;100181.75;;;17.18;51.14
6942;BME280;3510;43.200;27.920;2023-03-16T04:20:03;100187.03;;;17.23;51.10
6942;BME280;3510;43.200;27.920;2023-03-16T04:22:35;100193.50;;;17.52;50.60
6942;BME280;3510;43.200;27.920;2023-03-16T04:25:01;100193.88;;;17.24;51.06
6942;BME280;3510;43.200;27.920;2023-03-16T04:27:28;100191.34;;;17.61;50.14
6942;BME280;3510;43.200;27.920;2023-03-16T04:30:00;100202.16;;;17.37;50.87
6942;BME280;3510;43.200;27.920;2023-03-16T04:32:28;100204.91;;;17.97;49.50
6942;BME280;3510;43.200;27.920;2023-03-16T04:34:54;100197.59;;;17.85;49.66
6942;BME280;3510;43.200;27.920;2023-03-16T04:37:20;100207.88;;;18.06;49.32
6942;BME280;3510;43.200;27.920;2023-03-16T04:39:47;100210.47;;;17.88;49.42
6942;BME280;3510;43.200;27.920;2023-03-16T04:42:13;100212.72;;;17.64;50.59
6942;BME280;3510;43.200;27.920;2023-03-16T04:44:40;100210.28;;;17.48;50.26
6942;BME280;3510;43.200;27.920;2023-03-16T04:47:09;100207.88;;;16.98;51.81
6942;BME280;3510;43.200;27.920;2023-03-16T04:49:38;100209.97;;;16.72;52.47
6942;BME280;3510;43.200;27.920;2023-03-16T04:52:05;100220.56;;;16.63;52.88
6942;BME280;3510;43.200;27.920;2023-03-16T04:54:32;100218.66;;;16.76;52.95
6942;BME280;3510;43.200;27.920;2023-03-16T04:56:59;100220.31;;;16.91;52.62
6942;BME280;3510;43.200;27.920;2023-03-16T04:59:28;100228.75;;;16.58;53.61
6942;BME280;3510;43.200;27.920;2023-03-16T05:02:09;100227.16;;;16.60;53.72
6942;BME280;3510;43.200;27.920;2023-03-16T05:04:36;100232.06;;;16.57;53.32
6942;BME280;3510;43.200;27.920;2023-03-16T05:07:04;100189.66;;;16.21;53.76
6942;BME280;3510;43.200;27.920;2023-03-16T05:09:31;100232.97;;;16.08;54.94
6942;BME280;3510;43.200;27.920;2023-03-16T05:11:57;100237.03;;;16.21;55.03
6942;BME280;3510;43.200;27.920;2023-03-16T05:14:25;100209.28;;;16.24;54.27
6942;BME280;3510;43.200;27.920;2023-03-16T05:16:52;100239.00;;;16.59;54.21
6942;BME280;3510;43.200;27.920;2023-03-16T05:19:18;100243.91;;;16.07;55.55
6942;BME280;3510;43.200;27.920;2023-03-16T05:21:45;100254.97;;;16.24;55.17
6942;BME280;3510;43.200;27.920;2023-03-16T05:24:13;100254.25;;;16.10;55.78
6942;BME280;3510;43.200;27.920;2023-03-16T05:26:39;100256.94;;;16.13;55.72
6942;BME280;3510;43.200;27.920;2023-03-16T05:29:06;100260.59;;;16.35;55.06
6942;BME280;3510;43.200;27.920;2023-03-16T05:31:33;100258.78;;;16.32;55.04
6942;BME280;3510;43.200;27.920;2023-03-16T05:34:01;100245.75;;;16.75;53.83
6942;BME280;3510;43.200;27.920;2023-03-16T05:36:28;100250.72;;;16.57;54.13
6942;BME280;3510;43.200;27.920;2023-03-16T05:38:55;100258.03;;;16.35;54.66
6942;BME280;3510;43.200;27.920;2023-03-16T05:41:23;100259.16;;;16.56;54.29
6942;BME280;3510;43.200;27.920;2023-03-16T05:43:50;100261.47;;;16.35;54.92
6942;BME280;3510;43.200;27.920;2023-03-16T05:46:17;100248.88;;;15.89;56.15
6942;BME280;3510;43.200;27.920;2023-03-16T05:48:44;100253.38;;;16.26;55.01
6942;BME280;3510;43.200;27.920;2023-03-16T05:51:11;100272.13;;;16.28;54.90
6942;BME280;3510;43.200;27.920;2023-03-16T05:53:38;100264.69;;;16.16;55.21
6942;BME280;3510;43.200;27.920;2023-03-16T05:56:05;100272.28;;;15.84;56.13
6942;BME280;3510;43.200;27.920;2023-03-16T05:58:33;100269.75;;;16.00;55.55
6942;BME280;3510;43.200;27.920;2023-03-16T06:01:00;100269.34;;;15.61;56.59
6942;BME280;3510;43.200;27.920;2023-03-16T06:03:28;100255.63;;;15.43;56.84
6942;BME280;3510;43.200;27.920;2023-03-16T06:06:09;100268.84;;;16.14;54.98
6942;BME280;3510;43.200;27.920;2023-03-16T06:08:49;100278.56;;;15.76;56.27
6942;BME280;3510;43.200;27.920;2023-03-16T06:11:29;100281.69;;;15.86;55.96
6942;BME280;3510;43.200;27.920;2023-03-16T06:20:01;100288.97;;;16.11;55.14
6942;BME280;3510;43.200;27.920;2023-03-16T06:22:29;100297.56;;;16.30;54.95
6942;BME280;3510;43.200;27.920;2023-03-16T06:24:56;100294.41;;;16.50;54.36
6942;BME280;3510;43.200;27.920;2023-03-16T06:27:22;100306.22;;;16.33;54.55
6942;BME280;3510;43.200;27.920;2023-03-16T06:29:54;100299.19;;;16.13;55.13
6942;BME280;3510;43.200;27.920;2023-03-16T06:32:21;100295.97;;;16.15;55.00
6942;BME280;3510;43.200;27.920;2023-03-16T06:34:47;100305.94;;;16.12;55.00
6942;BME280;3510;43.200;27.920;2023-03-16T06:37:15;100310.41;;;16.16;55.44
6942;BME280;3510;43.200;27.920;2023-03-16T06:39:41;100310.59;;;16.36;54.21
6942;BME280;3510;43.200;27.920;2023-03-16T06:42:08;100322.56;;;16.22;54.90
6942;BME280;3510;43.200;27.920;2023-03-16T06:44:35;100320.47;;;16.79;53.98
6942;BME280;3510;43.200;27.920;2023-03-16T06:47:02;100319.97;;;16.53;54.23
6942;BME280;3510;43.200;27.920;2023-03-16T06:49:28;100327.91;;;16.59;54.13
6942;BME280;3510;43.200;27.920;2023-03-16T06:51:55;100333.47;;;16.36;54.98
6942;BME280;3510;43.200;27.920;2023-03-16T06:54:24;100333.50;;;15.90;55.68
6942;BME280;3510;43.200;27.920;2023-03-16T06:56:51;100340.75;;;16.30;55.17
6942;BME280;3510;43.200;27.920;2023-03-16T06:59:17;100344.16;;;15.99;55.52
6942;BME280;3510;43.200;27.920;2023-03-16T07:01:43;100345.53;;;16.09;55.11
6942;BME280;3510;43.200;27.920;2023-03-16T07:04:10;100345.81;;;16.30;54.77
6942;BME280;3510;43.200;27.920;2023-03-16T07:06:37;100355.56;;;16.86;53.41
6942;BME280;3510;43.200;27.920;2023-03-16T07:09:03;100358.44;;;16.92;53.06
6942;BME280;3510;43.200;27.920;2023-03-16T07:11:31;100358.75;;;17.66;51.45
6942;BME280;3510;43.200;27.920;2023-03-16T07:13:58;100369.69;;;16.97;53.15
6942;BME280;3510;43.200;27.920;2023-03-16T07:16:24;100367.81;;;17.96;50.50
6942;BME280;3510;43.200;27.920;2023-03-16T07:18:51;100375.94;;;17.36;52.00
6942;BME280;3510;43.200;27.920;2023-03-16T07:21:18;100349.47;;;16.99;52.87
6942;BME280;3510;43.200;27.920;2023-03-16T07:23:46;100372.25;;;17.13;53.29
6942;BME280;3510;43.200;27.920;2023-03-16T07:26:13;100377.41;;;16.35;54.65
6942;BME280;3510;43.200;27.920;2023-03-16T07:28:41;100382.88;;;16.90;53.30
6942;BME280;3510;43.200;27.920;2023-03-16T07:31:08;100387.97;;;17.06;53.42
6942;BME280;3510;43.200;27.920;2023-03-16T07:33:35;100388.22;;;18.33;50.71
6942;BME280;3510;43.200;27.920;2023-03-16T07:36:02;100391.81;;;18.56;50.04
6942;BME280;3510;43.200;27.920;2023-03-16T07:38:30;100392.19;;;19.02;49.52
6942;BME280;3510;43.200;27.920;2023-03-16T07:40:57;100382.56;;;19.36;48.18
6942;BME280;3510;43.200;27.920;2023-03-16T07:43:24;100392.13;;;18.63;49.54
6942;BME280;3510;43.200;27.920;2023-03-16T07:45:52;100399.41;;;17.83;52.09
6942;BME280;3510;43.200;27.920;2023-03-16T07:48:19;100395.34;;;18.22;50.55
6942;BME280;3510;43.200;27.920;2023-03-16T07:50:47;100402.13;;;18.22;50.91
6942;BME280;3510;43.200;27.920;2023-03-16T07:53:15;100399.13;;;18.12;51.01
6942;BME280;3510;43.200;27.920;2023-03-16T07:55:42;100404.75;;;16.72;54.00
6942;BME280;3510;43.200;27.920;2023-03-16T07:58:08;100412.38;;;17.53;52.29
6942;BME280;3510;43.200;27.920;2023-03-16T08:00:36;100406.19;;;17.82;51.92
6942;BME280;3510;43.200;27.920;2023-03-16T08:03:08;100395.38;;;15.92;55.40
6942;BME280;3510;43.200;27.920;2023-03-16T08:05:35;100417.25;;;15.90;56.06
6942;BME280;3510;43.200;27.920;2023-03-16T08:08:02;100404.94;;;16.12;55.30
6942;BME280;3510;43.200;27.920;2023-03-16T08:10:28;100411.69;;;16.12;55.25
6942;BME280;3510;43.200;27.920;2023-03-16T08:12:56;100416.72;;;15.95;56.24
6942;BME280;3510;43.200;27.920;2023-03-16T08:15:22;100416.91;;;16.30;54.96
6942;BME280;3510;43.200;27.920;2023-03-16T08:17:49;100416.81;;;15.82;56.58
6942;BME280;3510;43.200;27.920;2023-03-16T08:20:18;100418.09;;;16.05;56.43
6942;BME280;3510;43.200;27.920;2023-03-16T08:22:45;100420.25;;;16.29;55.44
6942;BME280;3510;43.200;27.920;2023-03-16T08:25:15;100392.88;;;16.08;55.48
6942;BME280;3510;43.200;27.920;2023-03-16T08:27:44;100429.53;;;15.39;57.35
6942;BME280;3510;43.200;27.920;2023-03-16T08:30:12;100424.47;;;16.28;55.33
6942;BME280;3510;43.200;27.920;2023-03-16T08:32:39;100412.16;;;15.90;55.52
6942;BME280;3510;43.200;27.920;2023-03-16T08:35:06;100444.28;;;16.04;55.55
6942;BME280;3510;43.200;27.920;2023-03-16T08:37:34;100439.22;;;15.75;56.03
6942;BME280;3510;43.200;27.920;2023-03-16T08:40:00;100435.19;;;15.78;55.68
6942;BME280;3510;43.200;27.920;2023-03-16T08:42:30;100433.47;;;15.49;56.58
6942;BME280;3510;43.200;27.920;2023-03-16T08:44:56;100449.91;;;15.84;56.30
6942;BME280;3510;43.200;27.920;2023-03-16T08:47:25;100439.53;;;15.51;56.11
6942;BME280;3510;43.200;27.920;2023-03-16T08:49:51;100451.06;;;15.61;56.81
6942;BME280;3510;43.200;27.920;2023-03-16T08:52:18;100447.53;;;15.29;57.59
6942;BME280;3510;43.200;27.920;2023-03-16T08:54:47;100448.00;;;15.52;57.18
6942;BME280;3510;43.200;27.920;2023-03-16T08:57:14;100457.88;;;15.47;57.36
6942;BME280;3510;43.200;27.920;2023-03-16T08:59:42;100444.09;;;16.01;55.93
6942;BME280;3510;43.200;27.920;2023-03-16T09:02:11;100451.81;;;16.17;55.65
6942;BME280;3510;43.200;27.920;2023-03-16T09:04:39;100463.91;;;15.77;56.80
6942;BME280;3510;43.200;27.920;2023-03-16T09:07:06;100408.81;;;15.32;57.28
6942;BME280;3510;43.200;27.920;2023-03-16T09:09:33;100457.78;;;15.73;55.92
6942;BME280;3510;43.200;27.920;2023-03-16T09:12:09;100426.53;;;15.17;57.14
6942;BME280;3510;43.200;27.920;2023-03-16T09:14:38;100470.81;;;15.80;55.57
6942;BME280;3510;43.200;27.920;2023-03-16T09:17:06;100442.25;;;15.54;55.90
6942;BME280;3510;43.200;27.920;2023-03-16T09:19:34;100462.47;;;15.97;55.67
6942;BME280;3510;43.200;27.920;2023-03-16T09:22:00;100477.16;;;15.58;55.53
6942;BME280;3510;43.200;27.920;2023-03-16T09:24:28;100480.50;;;16.16;55.60
6942;BME280;3510;43.200;27.920;2023-03-16T09:26:56;100454.03;;;16.28;54.03
6942;BME280;3510;43.200;27.920;2023-03-16T09:29:24;100431.19;;;16.74;52.86
6942;BME280;3510;43.200;27.920;2023-03-16T09:31:54;100449.66;;;15.51;55.73
6942;BME280;3510;43.200;27.920;2023-03-16T09:34:20;100491.00;;;16.23;53.57
6942;BME280;3510;43.200;27.920;2023-03-16T09:36:47;100499.25;;;16.18;53.97
6942;BME280;3510;43.200;27.920;2023-03-16T09:39:13;100502.75;;;16.06;54.36
6942;BME280;3510;43.200;27.920;2023-03-16T09:41:41;100506.88;;;15.61;55.24
6942;BME280;3510;43.200;27.920;2023-03-16T09:44:17;100507.28;;;15.96;54.54
6942;BME280;3510;43.200;27.920;2023-03-16T09:46:50;100510.06;;;16.45;53.26
6942;BME280;3510;43.200;27.920;2023-03-16T09:49:17;100524.16;;;16.55;53.11
6942;BME280;3510;43.200;27.920;2023-03-16T09:51:50;100519.78;;;16.38;54.09
6942;BME280;3510;43.200;27.920;2023-03-16T09:54:22;100515.69;;;16.40;53.82
6942;BME280;3510;43.200;27.920;2023-03-16T09:56:52;100531.44;;;16.19;54.47
6942;BME280;3510;43.200;27.920;2023-03-16T09:59:20;100527.19;;;16.64;52.94
6942;BME280;3510;43.200;27.920;2023-03-16T10:01:54;100537.94;;;16.44;53.47
6942;BME280;3510;43.200;27.920;2023-03-16T10:04:31;100527.53;;;16.85;52.78
6942;BME280;3510;43.200;27.920;2023-03-16T10:07:02;100533.72;;;16.00;54.33
6942;BME280;3510;43.200;27.920;2023-03-16T10:09:31;100531.50;;;16.80;52.76
6942;BME280;3510;43.200;27.920;2023-03-16T10:12:04;100535.13;;;16.39;53.36
6942;BME280;3510;43.200;27.920;2023-03-16T10:14:36;100541.16;;;16.41;53.33
6942;BME280;3510;43.200;27.920;2023-03-16T10:17:08;100542.31;;;16.32;53.12
6942;BME280;3510;43.200;27.920;2023-03-16T10:19:38;100541.81;;;16.68;52.69
6942;BME280;3510;43.200;27.920;2023-03-16T10:22:11;100529.03;;;16.98;51.74
6942;BME280;3510;43.200;27.920;2023-03-16T10:24:42;100540.56;;;16.01;53.59
6942;BME280;3510;43.200;27.920;2023-03-16T10:27:13;100539.34;;;16.39;53.42
6942;BME280;3510;43.200;27.920;2023-03-16T10:29:42;100540.34;;;16.42;53.06
6942;BME280;3510;43.200;27.920;2023-03-16T10:32:13;100540.56;;;16.16;53.65
6942;BME280;3510;43.200;27.920;2023-03-16T10:34:42;100545.38;;;15.96;54.79
6942;BME280;3510;43.200;27.920;2023-03-16T10:37:11;100541.59;;;16.34;53.67
6942;BME280;3510;43.200;27.920;2023-03-16T10:39:39;100535.19;;;16.56;53.19
6942;BME280;3510;43.200;27.920;2023-03-16T10:42:08;100543.03;;;16.14;53.40
6942;BME280;3510;43.200;27.920;2023-03-16T10:44:39;100547.84;;;16.25;53.49
6942;BME280;3510;43.200;27.920;2023-03-16T10:47:06;100546.69;;;16.05;53.79
6942;BME280;3510;43.200;27.920;2023-03-16T10:49:36;100538.81;;;16.30;53.54
6942;BME280;3510;43.200;27.920;2023-03-16T10:52:10;100541.13;;;16.56;52.95
6942;BME280;3510;43.200;27.920;2023-03-16T10:54:38;100540.31;;;16.87;52.04
6942;BME280;3510;43.200;27.920;2023-03-16T10:57:12;100533.19;;;16.96;52.00
6942;BME280;3510;43.200;27.920;2023-03-16T10:59:39;100544.91;;;16.78;52.07
6942;BME280;3510;43.200;27.920;2023-03-16T11:02:13;100542.72;;;17.00;51.11
6942;BME280;3510;43.200;27.920;2023-03-16T11:04:42;100553.88;;;17.18;51.39
6942;BME280;3510;43.200;27.920;2023-03-16T11:07:14;100550.84;;;16.63;51.78
6942;BME280;3510;43.200;27.920;2023-03-16T11:09:43;100547.09;;;16.57;52.11
6942;BME280;3510;43.200;27.920;2023-03-16T11:12:11;100552.78;;;17.46;50.27
6942;BME280;3510;43.200;27.920;2023-03-16T11:14:41;100556.31;;;17.32;50.79
6942;BME280;3510;43.200;27.920;2023-03-16T11:17:09;100551.84;;;17.44;50.78
6942;BME280;3510;43.200;27.920;2023-03-16T11:19:39;100549.81;;;16.75;51.23
6942;BME280;3510;43.200;27.920;2023-03-16T11:22:10;100546.31;;;16.58;51.43
6942;BME280;3510;43.200;27.920;2023-03-16T11:24:42;100549.03;;;16.02;53.12
6942;BME280;3510;43.200;27.920;2023-03-16T11:27:12;100543.53;;;16.99;50.86
6942;BME280;3510;43.200;27.920;2023-03-16T11:29:46;100556.63;;;17.54;49.94
6942;BME280;3510;43.200;27.920;2023-03-16T11:32:19;100552.94;;;17.33;49.65
6942;BME280;3510;43.200;27.920;2023-03-16T11:34:48;100562.03;;;17.44;49.43
6942;BME280;3510;43.200;27.920;2023-03-16T11:37:19;100561.19;;;17.12;50.24
6942;BME280;3510;43.200;27.920;2023-03-16T11:39:55;100565.91;;;17.54;49.60
6942;BME280;3510;43.200;27.920;2023-03-16T11:42:26;100562.25;;;17.49;49.86
6942;BME280;3510;43.200;27.920;2023-03-16T11:44:55;100566.50;;;17.81;49.28
6942;BME280;3510;43.200;27.920;2023-03-16T11:47:30;100571.19;;;17.89;49.50
6942;BME280;3510;43.200;27.920;2023-03-16T11:50:02;100571.16;;;18.58;47.81
6942;BME280;3510;43.200;27.920;2023-03-16T12:04:19;100572.25;;;17.46;49.57
6942;BME280;3510;43.200;27.920;2023-03-16T12:06:52;100580.88;;;17.48;50.81
6942;BME280;3510;43.200;27.920;2023-03-16T12:12:00;100586.19;;;17.69;50.23
6942;BME280;3510;43.200;27.920;2023-03-16T12:14:31;100583.97;;;18.07;49.02
6942;BME280;3510;43.200;27.920;2023-03-16T12:17:01;100588.16;;;17.25;50.29
6942;BME280;3510;43.200;27.920;2023-03-16T12:19:35;100597.81;;;17.47;50.01
6942;BME280;3510;43.200;27.920;2023-03-16T12:22:06;100591.34;;;17.37;50.36
6942;BME280;3510;43.200;27.920;2023-03-16T12:24:39;100591.78;;;17.61;50.18
6942;BME280;3510;43.200;27.920;2023-03-16T12:27:08;100598.09;;;17.53;49.63
6942;BME280;3510;43.200;27.920;2023-03-16T12:29:39;100599.47;;;17.47;50.12
6942;BME280;3510;43.200;27.920;2023-03-16T12:32:08;100595.84;;;17.27;49.38
6942;BME280;3510;43.200;27.920;2023-03-16T12:34:42;100607.28;;;17.82;48.89
6942;BME280;3510;43.200;27.920;2023-03-16T12:37:13;100610.50;;;17.31;49.53
6942;BME280;3510;43.200;27.920;2023-03-16T12:42:40;100607.81;;;17.13;49.74
6942;BME280;3510;43.200;27.920;2023-03-16T12:45:10;100608.25;;;16.30;51.80
6942;BME280;3510;43.200;27.920;2023-03-16T12:47:40;100611.50;;;17.18;49.90
6942;BME280;3510;43.200;27.920;2023-03-16T12:50:14;100615.13;;;17.07;50.43
6942;BME280;3510;43.200;27.920;2023-03-16T12:52:42;100609.53;;;16.98;50.94
6942;BME280;3510;43.200;27.920;2023-03-16T12:55:11;100617.59;;;17.53;49.87
6942;BME280;3510;43.200;27.920;2023-03-16T12:57:39;100615.50;;;17.77;49.83
6942;BME280;3510;43.200;27.920;2023-03-16T13:00:06;100618.97;;;17.62;49.98
6942;BME280;3510;43.200;27.920;2023-03-16T13:02:35;100620.00;;;17.18;50.98
6942;BME280;3510;43.200;27.920;2023-03-16T13:05:07;100627.16;;;17.73;49.89
6942;BME280;3510;43.200;27.920;2023-03-16T13:07:36;100632.47;;;17.14;50.77
6942;BME280;3510;43.200;27.920;2023-03-16T13:10:07;100629.09;;;17.77;49.23
6942;BME280;3510;43.200;27.920;2023-03-16T13:12:35;100635.56;;;17.56;49.28
6942;BME280;3510;43.200;27.920;2023-03-16T13:17:40;100646.75;;;18.07;48.51
6942;BME280;3510;43.200;27.920;2023-03-16T13:20:22;100640.75;;;18.23;48.23
6942;BME280;3510;43.200;27.920;2023-03-16T13:25:57;100650.50;;;17.81;49.15
6942;BME280;3510;43.200;27.920;2023-03-16T13:28:27;100648.63;;;17.31;50.30
6942;BME280;3510;43.200;27.920;2023-03-16T13:30:53;100650.63;;;17.67;49.76
6942;BME280;3510;43.200;27.920;2023-03-16T13:33:20;100652.25;;;17.98;48.74
6942;BME280;3510;43.200;27.920;2023-03-16T13:35:50;100658.13;;;17.97;48.44
6942;BME280;3510;43.200;27.920;2023-03-16T13:38:18;100661.75;;;18.35;48.13
6942;BME280;3510;43.200;27.920;2023-03-16T13:40:49;100665.88;;;17.99;48.72
6942;BME280;3510;43.200;27.920;2023-03-16T13:43:21;100677.63;;;18.29;47.95